.
WxDataArchive / Data Records for 2006-03-24
2006-03-23 March 2006 2006-03-25

Data Records for Friday, 24 March 2006

Time	Temp	Chill	HIndex	Humid	Dewpt	 Wind 	HiWind	WindDir	Rain 	Barom 
-----	----	-----	------	-----	-----	------	------	-------	-----	----- 
00:00	36.2	36.2	36.2	65	25.6	0	1	68	0.00	30.130 
00:05	36.0	36.0	36.0	65	25.4	0	1	68	0.00	30.130 
00:10	35.9	35.9	35.9	65	25.3	0	0	---	0.00	30.130 
00:15	35.8	35.8	35.8	65	25.2	0	0	---	0.00	30.128 
00:20	35.6	35.6	35.6	66	25.4	0	0	---	0.00	30.128 
00:25	35.5	35.5	35.5	66	25.3	0	0	---	0.00	30.128 
00:30	35.3	35.3	35.3	66	25.1	0	0	---	0.00	30.127 
00:35	35.3	35.3	35.3	66	25.1	0	0	---	0.00	30.127 
00:40	35.2	35.2	35.2	66	25.0	0	0	---	0.00	30.127 
00:45	35.0	35.0	35.0	66	24.8	0	0	---	0.00	30.125 
00:50	34.9	34.9	34.9	66	24.7	0	0	---	0.00	30.125 
00:55	34.7	34.7	34.7	67	24.9	0	0	---	0.00	30.125 
01:00	34.4	34.4	34.4	68	24.9	0	0	---	0.00	30.124 
01:05	34.3	34.3	34.3	68	24.9	0	0	---	0.00	30.124 
01:10	34.3	34.3	34.3	68	24.9	0	0	---	0.00	30.124 
01:15	34.1	34.1	34.1	69	25.0	0	0	---	0.00	30.123 
01:20	34.0	34.0	34.0	69	24.9	0	0	---	0.00	30.123 
01:25	33.8	33.8	33.8	69	24.7	0	0	---	0.00	30.123 
01:30	33.8	33.8	33.8	70	25.1	0	0	---	0.00	30.121 
01:35	33.7	33.7	33.7	70	25.0	0	0	---	0.00	30.121 
01:40	33.7	33.7	33.7	71	25.3	0	0	---	0.00	30.121 
01:45	33.7	33.7	33.7	71	25.3	0	0	---	0.00	30.120 
01:50	33.7	33.7	33.7	71	25.3	0	0	---	0.00	30.120 
01:55	33.5	33.5	33.5	71	25.1	0	0	---	0.00	30.120 
02:00	33.4	33.4	33.4	71	25.0	0	0	---	0.00	30.114 
02:05	33.4	33.4	33.4	71	25.0	0	0	---	0.00	30.114 
02:10	33.2	33.2	33.2	71	24.8	0	0	---	0.00	30.114 
02:15	33.1	33.1	33.1	72	25.1	0	0	---	0.00	30.110 
02:20	33.1	33.1	33.1	72	25.1	0	0	---	0.00	30.110 
02:25	32.8	32.8	32.8	72	24.8	0	0	---	0.00	30.110 
02:30	32.7	32.7	32.7	73	25.0	0	0	---	0.00	30.109 
02:35	32.5	32.5	32.5	73	24.8	0	0	---	0.00	30.109 
02:40	32.4	32.4	32.4	73	24.7	0	0	---	0.00	30.109 
02:45	32.2	32.2	32.2	74	24.9	0	0	---	0.00	30.106 
02:50	31.9	31.9	31.9	74	24.6	0	0	---	0.00	30.106 
02:55	31.8	31.8	31.8	74	24.5	0	0	---	0.00	30.106 
03:00	31.5	31.5	31.5	75	24.5	0	1	68	0.00	30.099 
03:05	31.2	31.2	31.2	75	24.2	0	0	---	0.00	30.099 
03:10	30.9	30.9	30.9	76	24.2	0	0	---	0.00	30.099 
03:15	30.6	30.6	30.6	76	24.0	0	0	---	0.00	30.099 
03:20	30.3	30.3	30.3	77	24.0	0	0	---	0.00	30.099 
03:25	30.0	30.0	30.0	77	23.7	0	0	---	0.00	30.099 
03:30	29.7	29.7	29.7	78	23.7	0	0	---	0.00	30.099 
03:35	29.5	29.5	29.5	78	23.5	0	0	---	0.00	30.099 
03:40	29.3	29.3	29.3	79	23.6	0	0	---	0.00	30.099 
03:45	29.1	29.1	29.1	79	23.4	0	0	---	0.00	30.100 
03:50	28.8	28.8	28.8	79	23.1	0	0	---	0.00	30.100 
03:55	28.7	28.7	28.7	80	23.3	0	0	---	0.00	30.100 
04:00	28.4	28.4	28.4	80	23.0	0	0	---	0.00	30.100 
04:05	28.4	28.4	28.4	81	23.3	0	0	---	0.00	30.100 
04:10	28.2	28.2	28.2	81	23.1	0	0	---	0.00	30.100 
04:15	28.1	28.1	28.1	81	23.0	0	0	---	0.00	30.100 
04:20	28.1	28.1	28.1	81	23.0	0	0	---	0.00	30.100 
04:25	28.1	28.1	28.1	81	23.0	0	0	---	0.00	30.100 
04:30	27.9	27.9	27.9	81	22.8	0	0	---	0.00	30.099 
04:35	27.9	27.9	27.9	81	22.8	0	0	---	0.00	30.099 
04:40	27.9	27.9	27.9	81	22.8	0	0	---	0.00	30.099 
04:45	28.1	28.1	28.1	82	23.3	0	0	---	0.00	30.096 
04:50	28.2	28.2	28.2	81	23.1	0	0	---	0.00	30.096 
04:55	28.2	28.2	28.2	82	23.4	0	0	---	0.00	30.096 
05:00	28.1	28.1	28.1	81	23.0	0	0	---	0.00	30.095 
05:05	28.1	28.1	28.1	82	23.3	0	0	---	0.00	30.095 
05:10	27.9	27.9	27.9	82	23.1	0	0	---	0.00	30.095 
05:15	27.9	27.9	27.9	82	23.1	0	0	---	0.00	30.099 
05:20	27.9	27.9	27.9	82	23.1	0	0	---	0.00	30.099 
05:25	28.1	28.1	28.1	82	23.3	0	0	---	0.00	30.099 
05:30	28.1	28.1	28.1	83	23.6	0	0	---	0.00	30.096 
05:35	28.2	28.2	28.2	83	23.7	0	0	---	0.00	30.096 
05:40	28.2	28.2	28.2	83	23.7	0	0	---	0.00	30.096 
05:45	28.4	28.4	28.4	83	23.9	0	0	---	0.00	30.096 
05:50	28.4	28.4	28.4	83	23.9	0	0	---	0.00	30.096 
05:55	28.5	28.5	28.5	82	23.7	0	0	---	0.00	30.096 
06:00	28.5	28.5	28.5	82	23.7	0	0	---	0.00	30.097 
06:05	28.7	28.7	28.7	82	23.9	0	0	---	0.00	30.097 
06:10	28.8	28.8	28.8	81	23.7	0	0	---	0.00	30.097 
06:15	28.8	28.8	28.8	81	23.7	0	0	---	0.00	30.103 
06:20	28.8	28.8	28.8	81	23.7	0	0	---	0.00	30.103 
06:25	29.0	29.0	29.0	81	23.9	0	0	---	0.00	30.103 
06:30	29.0	29.0	29.0	81	23.9	0	0	---	0.00	30.103 
06:35	29.0	29.0	29.0	81	23.9	0	0	---	0.00	30.103 
06:40	29.0	29.0	29.0	81	23.9	0	0	---	0.00	30.103 
06:45	29.0	29.0	29.0	81	23.9	0	0	---	0.00	30.102 
06:50	29.0	29.0	29.0	80	23.6	0	0	---	0.00	30.102 
06:55	29.0	29.0	29.0	81	23.9	0	0	---	0.00	30.102 
07:00	29.0	29.0	29.0	80	23.6	0	0	---	0.00	30.102 
07:05	29.0	29.0	29.0	81	23.9	0	0	---	0.00	30.102 
07:10	29.0	29.0	29.0	81	23.9	0	0	---	0.00	30.102 
07:15	29.1	29.1	29.1	81	24.0	0	0	---	0.00	30.103 
07:20	29.3	29.3	29.3	80	23.9	0	0	---	0.00	30.103 
07:25	29.4	29.4	29.4	80	24.0	0	0	---	0.00	30.103 
07:30	29.7	29.7	29.7	79	24.0	0	0	---	0.00	30.103 
07:35	29.8	29.8	29.8	79	24.1	0	0	---	0.00	30.103 
07:40	30.1	30.1	30.1	79	24.4	0	0	---	0.00	30.103 
07:45	30.3	30.3	30.3	78	24.3	0	0	---	0.00	30.103 
07:50	30.6	30.6	30.6	77	24.3	0	0	---	0.00	30.103 
07:55	30.7	30.7	30.7	77	24.4	0	0	---	0.00	30.103 
08:00	30.9	30.9	30.9	77	24.6	0	0	---	0.00	30.104 
08:05	30.9	30.9	30.9	75	23.9	0	0	---	0.00	30.104 
08:10	31.2	31.2	31.2	75	24.2	0	0	---	0.00	30.104 
08:15	31.3	31.3	31.3	75	24.3	0	0	---	0.00	30.104 
08:20	31.5	31.5	31.5	76	24.8	0	0	---	0.00	30.104 
08:25	31.8	31.8	31.8	74	24.5	0	0	---	0.00	30.104 
08:30	32.1	32.1	32.1	74	24.8	0	0	---	0.00	30.104 
08:35	32.5	32.5	32.5	73	24.8	0	1	68	0.00	30.104 
08:40	33.1	33.1	33.1	72	25.1	0	1	68	0.00	30.104 
08:45	33.7	33.7	33.7	71	25.3	0	1	68	0.00	30.101 
08:50	34.6	34.6	34.6	69	25.5	1	3	68	0.00	30.101 
08:55	35.2	35.2	35.2	69	26.1	1	3	90	0.00	30.101 
09:00	35.9	35.9	35.9	68	26.4	1	2	90	0.00	30.099 
09:05	37.0	37.0	37.0	67	27.1	0	1	90	0.00	30.099 
09:10	38.0	38.0	38.0	63	26.5	1	3	90	0.00	30.099 
09:15	38.8	38.8	38.8	61	26.5	1	3	90	0.00	30.096 
09:20	39.2	39.2	39.2	62	27.3	1	3	90	0.00	30.096 
09:25	39.5	39.5	39.5	63	28.0	0	2	90	0.00	30.096 
09:30	39.6	39.6	39.6	62	27.7	0	2	90	0.00	30.091 
09:35	39.6	39.6	39.6	62	27.7	0	2	90	0.00	30.091 
09:40	39.9	39.9	39.9	60	27.2	0	2	90	0.00	30.091 
09:45	40.2	40.2	40.2	60	27.4	0	1	90	0.00	30.088 
09:50	40.3	40.3	40.3	62	28.3	0	1	90	0.00	30.088 
09:55	41.1	41.1	41.1	60	28.3	1	4	90	0.00	30.088 
10:00	40.8	40.8	40.8	60	28.0	2	5	112	0.00	30.087 
10:05	40.9	40.9	40.9	62	28.9	0	2	112	0.00	30.087 
10:10	41.1	41.1	41.1	60	28.3	1	4	90	0.00	30.087 
10:15	41.1	41.1	41.1	59	27.9	1	4	248	0.00	30.084 
10:20	40.6	40.6	40.6	61	28.2	2	5	112	0.00	30.084 
10:25	40.5	40.5	40.5	61	28.1	1	3	90	0.00	30.084 
10:30	40.6	40.6	40.6	60	27.8	0	1	90	0.00	30.082 
10:35	40.6	40.6	40.6	58	27.0	0	2	90	0.00	30.082 
10:40	40.6	40.6	40.6	57	26.6	1	3	90	0.00	30.082 
10:45	40.3	40.3	40.3	57	26.3	0	2	90	0.00	30.083 
10:50	40.3	40.3	40.3	57	26.3	0	2	90	0.00	30.083 
10:55	40.3	40.3	40.3	54	25.0	0	2	90	0.00	30.083 
11:00	40.5	40.5	40.5	55	25.6	0	1	90	0.00	30.082 
11:05	40.6	40.6	40.6	56	26.1	0	2	90	0.00	30.082 
11:10	40.5	40.5	40.5	53	24.7	1	4	90	0.00	30.082 
11:15	40.3	40.3	40.3	54	25.0	0	1	90	0.00	30.082 
11:20	40.5	40.5	40.5	54	25.2	0	1	90	0.00	30.082 
11:25	40.9	40.9	40.9	53	25.1	0	2	90	0.00	30.082 
11:30	40.8	40.8	40.8	54	25.5	1	3	68	0.00	30.083 
11:35	40.2	40.2	40.2	55	25.3	2	4	68	0.00	30.083 
11:40	39.8	39.8	39.8	58	26.2	1	4	90	0.00	30.083 
11:45	39.9	39.9	39.9	60	27.2	0	3	315	0.00	30.082 
11:50	40.1	40.1	40.1	59	26.9	0	2	315	0.00	30.082 
11:55	40.3	40.3	40.3	58	26.7	1	4	90	0.00	30.082 
12:00	40.5	40.5	40.5	59	27.3	0	3	90	0.00	30.082 
12:05	40.5	40.5	40.5	57	26.5	1	3	22	0.00	30.082 
12:10	40.6	40.6	40.6	58	27.0	1	2	22	0.00	30.082 
12:15	40.8	40.8	40.8	57	26.8	1	4	338	0.00	30.081 
12:20	40.9	40.9	40.9	57	26.9	1	3	270	0.00	30.081 
12:25	41.3	41.3	41.3	57	27.2	1	3	270	0.00	30.081 
12:30	41.8	41.8	41.8	60	28.9	1	2	270	0.00	30.074 
12:35	42.2	42.2	42.2	55	27.2	0	2	270	0.00	30.074 
12:40	42.6	42.6	42.6	59	29.3	1	2	270	0.00	30.074 
12:45	42.6	42.6	42.6	57	28.4	1	4	90	0.00	30.068 
12:50	42.1	42.1	42.1	58	28.4	1	3	315	0.00	30.068 
12:55	42.1	42.1	42.1	56	27.5	1	3	315	0.00	30.068 
13:00	42.1	42.1	42.1	58	28.4	1	3	248	0.00	30.066 
13:05	41.8	41.8	41.8	56	27.3	1	3	248	0.00	30.066 
13:10	42.1	42.1	42.1	57	28.0	1	4	112	0.00	30.066 
13:15	42.2	42.2	42.2	59	28.9	1	2	90	0.00	30.066 
13:20	41.6	41.6	41.6	56	27.1	1	3	338	0.00	30.066 
13:25	41.8	41.8	41.8	59	28.5	0	3	292	0.00	30.066 
13:30	41.6	41.6	41.6	58	27.9	1	4	0	0.00	30.063 
13:35	41.9	41.9	41.9	57	27.8	1	3	270	0.00	30.063 
13:40	42.2	42.2	42.2	55	27.2	1	2	270	0.00	30.063 
13:45	42.2	42.2	42.2	58	28.5	1	3	270	0.00	30.057 
13:50	42.6	42.6	42.6	58	28.9	1	2	270	0.00	30.057 
13:55	42.6	42.6	42.6	54	27.1	1	4	270	0.00	30.057 
14:00	42.6	42.6	42.6	54	27.1	0	2	248	0.00	30.054 
14:05	42.3	42.3	42.3	55	27.3	1	2	248	0.00	30.054 
14:10	41.9	41.9	41.9	58	28.2	1	2	292	0.00	30.054 
14:15	41.9	41.9	41.9	59	28.6	1	3	248	0.00	30.052 
14:20	42.1	42.1	42.1	58	28.4	1	2	248	0.00	30.052 
14:25	42.2	42.2	42.2	56	27.6	1	3	248	0.00	30.052 
14:30	42.2	42.2	42.2	56	27.6	1	4	248	0.00	30.050 
14:35	42.1	42.1	42.1	59	28.8	1	4	248	0.00	30.050 
14:40	42.1	42.1	42.1	60	29.2	1	3	158	0.00	30.050 
14:45	41.8	41.8	41.8	60	28.9	1	3	338	0.00	30.050 
14:50	41.6	41.6	41.6	64	30.3	1	2	338	0.00	30.050 
14:55	41.5	41.5	41.5	64	30.2	0	2	338	0.00	30.050 
15:00	41.1	41.1	41.1	63	29.5	0	2	315	0.00	30.051 
15:05	40.6	40.6	40.6	67	30.5	1	4	270	0.00	30.051 
15:10	40.2	40.2	40.2	68	30.5	1	2	315	0.00	30.051 
15:15	39.8	39.8	39.8	73	31.9	1	3	338	0.00	30.055 
15:20	39.5	39.5	39.5	73	31.6	1	2	315	0.00	30.055 
15:25	39.2	39.2	39.2	74	31.6	1	4	315	0.00	30.055 
15:30	38.8	38.8	38.8	76	31.9	1	3	315	0.00	30.057 
15:35	38.5	38.5	38.5	77	31.9	1	3	315	0.00	30.057 
15:40	38.3	38.3	38.3	77	31.7	0	2	248	0.00	30.057 
15:45	38.2	38.2	38.2	80	32.6	0	1	248	0.00	30.056 
15:50	38.2	38.2	38.2	80	32.6	0	3	248	0.00	30.056 
15:55	38.2	38.2	38.2	81	32.9	0	2	338	0.00	30.056 
16:00	38.3	38.3	38.3	81	33.0	0	1	338	0.00	30.057 
16:05	38.2	38.2	38.2	81	32.9	1	4	45	0.00	30.057 
16:10	37.6	37.6	37.6	83	32.9	1	3	90	0.00	30.057 
16:15	37.3	37.3	37.3	85	33.2	1	4	90	0.00	30.058 
16:20	37.0	37.0	37.0	86	33.2	1	2	45	0.01	30.058 
16:25	36.8	36.8	36.8	86	33.0	1	3	45	0.00	30.058 
16:30	36.6	36.6	36.6	86	32.8	1	3	68	0.00	30.060 
16:35	36.5	36.5	36.5	86	32.7	1	4	68	0.00	30.060 
16:40	36.5	36.5	36.5	86	32.7	1	3	338	0.00	30.060 
16:45	36.5	36.5	36.5	87	33.0	0	2	0	0.00	30.060 
16:50	36.5	36.5	36.5	87	33.0	1	3	68	0.00	30.060 
16:55	36.3	36.3	36.3	87	32.8	1	3	45	0.00	30.060 
17:00	36.2	36.2	36.2	86	32.4	1	3	90	0.00	30.061 
17:05	36.0	36.0	36.0	87	32.5	1	4	112	0.00	30.061 
17:10	36.0	36.0	36.0	87	32.5	0	3	112	0.00	30.061 
17:15	35.9	35.9	35.9	87	32.4	0	1	112	0.00	30.065 
17:20	35.9	35.9	35.9	87	32.4	0	2	22	0.00	30.065 
17:25	35.9	35.9	35.9	88	32.7	0	2	338	0.01	30.065 
17:30	35.8	35.8	35.8	89	32.9	0	3	292	0.00	30.072 
17:35	35.6	35.6	35.6	88	32.4	0	2	315	0.00	30.072 
17:40	34.9	34.9	34.9	88	31.7	0	3	292	0.00	30.072 
17:45	34.1	34.1	34.1	88	30.9	0	1	292	0.00	30.077 
17:50	33.8	33.8	33.8	88	30.6	0	0	---	0.00	30.077 
17:55	33.5	33.5	33.5	89	30.6	0	0	---	0.00	30.077 
18:00	33.5	33.5	33.5	90	30.9	0	0	---	0.00	30.078 
18:05	33.5	33.5	33.5	90	30.9	0	0	---	0.01	30.078 
18:10	33.5	33.5	33.5	91	31.2	0	0	---	0.00	30.078 
18:15	33.5	33.5	33.5	91	31.2	0	0	---	0.00	30.079 
18:20	33.7	33.7	33.7	91	31.4	0	0	---	0.00	30.079 
18:25	33.7	33.7	33.7	91	31.4	0	0	---	0.01	30.079 
18:30	33.8	33.8	33.8	92	31.7	0	0	---	0.00	30.082 
18:35	33.8	33.8	33.8	92	31.7	0	1	292	0.00	30.082 
18:40	34.0	34.0	34.0	92	31.9	0	0	---	0.00	30.082 
18:45	34.0	34.0	34.0	92	31.9	0	1	292	0.00	30.082 
18:50	34.1	34.1	34.1	92	32.0	0	0	---	0.00	30.082 
18:55	34.1	34.1	34.1	92	32.0	0	2	292	0.00	30.082 
19:00	34.1	34.1	34.1	92	32.0	0	1	270	0.00	30.084 
19:05	34.1	34.1	34.1	92	32.0	0	2	292	0.00	30.084 
19:10	34.1	34.1	34.1	92	32.0	0	2	292	0.00	30.084 
19:15	34.0	34.0	34.0	91	31.7	0	1	292	0.00	30.081 
19:20	34.0	34.0	34.0	91	31.7	0	0	---	0.00	30.081 
19:25	34.0	34.0	34.0	91	31.7	0	0	---	0.00	30.081 
19:30	34.0	34.0	34.0	91	31.7	0	1	292	0.00	30.083 
19:35	34.0	34.0	34.0	91	31.7	0	1	292	0.00	30.083 
19:40	34.0	34.0	34.0	91	31.7	0	1	292	0.00	30.083 
19:45	34.0	34.0	34.0	91	31.7	0	1	292	0.00	30.084 
19:50	34.0	34.0	34.0	91	31.7	0	1	292	0.00	30.084 
19:55	33.8	33.8	33.8	91	31.5	0	1	292	0.00	30.084 
20:00	33.8	33.8	33.8	91	31.5	0	1	292	0.00	30.085 
20:05	33.8	33.8	33.8	91	31.5	0	1	292	0.00	30.085 
20:10	33.8	33.8	33.8	91	31.5	0	0	---	0.00	30.085 
20:15	33.8	33.8	33.8	91	31.5	0	0	---	0.00	30.081 
20:20	33.8	33.8	33.8	91	31.5	0	0	---	0.00	30.081 
20:25	33.8	33.8	33.8	91	31.5	0	0	---	0.00	30.081 
20:30	33.8	33.8	33.8	91	31.5	0	1	292	0.00	30.082 
20:35	33.8	33.8	33.8	92	31.7	0	0	---	0.00	30.082 
20:40	33.7	33.7	33.7	92	31.6	0	0	---	0.00	30.082 
20:45	33.7	33.7	33.7	92	31.6	0	0	---	0.00	30.084 
20:50	33.7	33.7	33.7	92	31.6	0	0	---	0.00	30.084 
20:55	33.7	33.7	33.7	92	31.6	0	0	---	0.00	30.084 
21:00	33.5	33.5	33.5	92	31.4	0	0	---	0.00	30.084 
21:05	33.5	33.5	33.5	92	31.4	0	0	---	0.00	30.084 
21:10	33.5	33.5	33.5	92	31.4	0	0	---	0.00	30.084 
21:15	33.4	33.4	33.4	92	31.3	0	0	---	0.00	30.080 
21:20	33.4	33.4	33.4	92	31.3	0	1	292	0.00	30.080 
21:25	33.4	33.4	33.4	92	31.3	0	0	---	0.00	30.080 
21:30	33.4	33.4	33.4	92	31.3	0	0	---	0.00	30.081 
21:35	33.2	33.2	33.2	92	31.1	0	0	---	0.00	30.081 
21:40	33.2	33.2	33.2	92	31.1	0	0	---	0.00	30.081 
21:45	33.2	33.2	33.2	92	31.1	0	1	292	0.00	30.081 
21:50	33.2	33.2	33.2	92	31.1	0	2	292	0.00	30.081 
21:55	33.2	33.2	33.2	92	31.1	0	2	292	0.00	30.081 
22:00	33.4	33.4	33.4	92	31.3	0	2	292	0.00	30.079 
22:05	33.4	33.4	33.4	92	31.3	0	1	292	0.00	30.079 
22:10	33.4	33.4	33.4	92	31.3	0	2	292	0.00	30.079 
22:15	33.4	33.4	33.4	92	31.3	0	2	292	0.00	30.076 
22:20	33.2	33.2	33.2	91	30.9	0	2	292	0.00	30.076 
22:25	33.2	33.2	33.2	91	30.9	0	2	338	0.00	30.076 
22:30	33.2	33.2	33.2	91	30.9	0	1	338	0.00	30.072 
22:35	33.2	33.2	33.2	90	30.6	0	1	338	0.00	30.072 
22:40	33.2	33.2	33.2	90	30.6	0	1	315	0.00	30.072 
22:45	33.1	33.1	33.1	90	30.5	0	1	315	0.00	30.071 
22:50	32.9	32.9	32.9	90	30.3	0	1	315	0.00	30.071 
22:55	32.9	32.9	32.9	90	30.3	0	1	315	0.00	30.071 
23:00	32.8	32.8	32.8	90	30.2	0	1	315	0.00	30.070 
23:05	32.7	32.7	32.7	90	30.1	0	2	315	0.00	30.070 
23:10	32.5	32.5	32.5	90	29.9	0	1	315	0.00	30.070 
23:15	32.4	32.4	32.4	90	29.8	0	1	315	0.00	30.071 
23:20	32.2	32.2	32.2	90	29.6	0	1	315	0.00	30.071 
23:25	32.2	32.2	32.2	91	29.9	0	0	---	0.00	30.071 
23:30	32.2	32.2	32.2	91	29.9	0	1	315	0.00	30.069 
23:35	32.1	32.1	32.1	91	29.8	0	1	315	0.00	30.069 
23:40	32.1	32.1	32.1	91	29.8	0	0	---	0.00	30.069 
23:45	31.9	31.9	31.9	91	29.6	0	1	315	0.00	30.068 
23:50	31.9	31.9	31.9	91	29.6	0	0	---	0.00	30.068 
23:55	31.9	31.9	31.9	91	29.6	0	1	315	0.00	30.068 

CoCoRaHS
IN-AL-39
A2 Web Hosting
Creative Commons License
GoDaddy
Look for:

loaded 2017-12-13 15:39:08 • last modified 2010-11-18 10:43:29
Privacy PolicyDisclaimer
• wx.awcolley.com is powered by PmWiki v.2002016 •
• all content (unless otherwise noted) © 2017 A W Colley